Wetterdaten: Woche 25.11.13 - 01.12.13 (KW48)
Datum Zeit Temp. A. Feuchte A. Luftdruck Regen Wind Richtung Taupunkt Windchill Windben
25.11.2013 00:00 -2,2 C 87 % 1026,6 hPa 0,0 l/m 0,6 km/h (0 Bft) W-NW -4,1 C -2,2 C 2,4 km/h (1 Bft)
25.11.2013 01:00 -2,8 C 88 % 1026,9 hPa 0,0 l/m 0,0 km/h (0 Bft) N -4,5 C -2,8 C 0,1 km/h (0 Bft)
25.11.2013 02:00 -3,2 C 90 % 1027,0 hPa 0,0 l/m 0,0 km/h (0 Bft) N -4,6 C -3,2 C 0,0 km/h (0 Bft)
25.11.2013 03:00 -3,9 C 91 % 1027,1 hPa 0,0 l/m 0,0 km/h (0 Bft) N -5,2 C -3,9 C 0,0 km/h (0 Bft)
25.11.2013 04:00 -4,2 C 91 % 1027,0 hPa 0,0 l/m 0,0 km/h (0 Bft) N -5,4 C -4,2 C 0,0 km/h (0 Bft)
25.11.2013 05:00 -4,6 C 92 % 1027,1 hPa 0,0 l/m 0,0 km/h (0 Bft) N -5,7 C -4,6 C 0,0 km/h (0 Bft)
25.11.2013 06:00 -4,7 C 92 % 1027,1 hPa 0,0 l/m 0,0 km/h (0 Bft) N -5,8 C -4,7 C 0,0 km/h (0 Bft)
25.11.2013 07:00 -4,6 C 92 % 1027,1 hPa 0,0 l/m 0,0 km/h (0 Bft) N -5,7 C -4,6 C 0,0 km/h (0 Bft)
25.11.2013 08:00 -5,0 C 93 % 1027,3 hPa 0,0 l/m 0,0 km/h (0 Bft) N -5,9 C -5,0 C 0,0 km/h (0 Bft)
25.11.2013 09:00 -3,1 C 92 % 1027,7 hPa 0,0 l/m 0,0 km/h (0 Bft) N -4,2 C -3,1 C 0,0 km/h (0 Bft)
25.11.2013 10:00 -0,8 C 89 % 1028,0 hPa 0,0 l/m 0,7 km/h (0 Bft) W-NW -2,5 C -0,8 C 2,4 km/h (1 Bft)
25.11.2013 11:00 0,9 C 85 % 1027,8 hPa 0,0 l/m 3,0 km/h (1 Bft) W-NW -1,3 C 0,9 C 5,6 km/h (2 Bft)
25.11.2013 12:00 2,5 C 80 % 1027,9 hPa 0,0 l/m 3,0 km/h (1 Bft) W -0,6 C 2,5 C 6,8 km/h (2 Bft)
25.11.2013 13:00 3,0 C 77 % 1028,0 hPa 0,0 l/m 7,3 km/h (2 Bft) N-NW -0,6 C 2,1 C 12,8 km/h (3 Bft)
25.11.2013 14:00 3,1 C 77 % 1028,1 hPa 0,0 l/m 5,5 km/h (2 Bft) N-NW -0,6 C 2,8 C 10,5 km/h (2 Bft)
25.11.2013 15:00 2,1 C 79 % 1028,4 hPa 0,0 l/m 2,7 km/h (1 Bft) NW -1,2 C 2,1 C 5,6 km/h (2 Bft)
25.11.2013 16:00 0,7 C 83 % 1028,9 hPa 0,0 l/m 0,5 km/h (0 Bft) NW -1,8 C 0,7 C 2,0 km/h (1 Bft)
25.11.2013 17:00 -0,9 C 88 % 1029,2 hPa 0,0 l/m 0,1 km/h (0 Bft) N-NW -2,5 C -0,9 C 0,9 km/h (0 Bft)
25.11.2013 18:00 -0,9 C 90 % 1029,8 hPa 0,0 l/m 1,3 km/h (1 Bft) NW -2,4 C -0,9 C 3,3 km/h (1 Bft)
25.11.2013 19:00 -0,9 C 90 % 1030,4 hPa 0,0 l/m 1,5 km/h (1 Bft) NW -2,4 C -0,9 C 2,7 km/h (1 Bft)
25.11.2013 20:00 -1,5 C 91 % 1030,8 hPa 0,0 l/m 0,2 km/h (0 Bft) N -2,7 C -1,5 C 0,9 km/h (0 Bft)
25.11.2013 21:00 -2,5 C 92 % 1031,2 hPa 0,0 l/m 0,0 km/h (0 Bft) N -3,7 C -2,5 C 0,3 km/h (0 Bft)
25.11.2013 22:00 -3,3 C 93 % 1031,6 hPa 0,0 l/m 0,0 km/h (0 Bft) N -4,2 C -3,3 C 0,1 km/h (0 Bft)
25.11.2013 23:00 -0,3 C 93 % 1031,7 hPa 0,0 l/m 4,0 km/h (1 Bft) NW -1,3 C -0,4 C 7,2 km/h (2 Bft)
26.11.2013 00:00 0,8 C 90 % 1031,7 hPa 0,0 l/m 4,7 km/h (1 Bft) NW -0,6 C 0,8 C 8,4 km/h (2 Bft)
26.11.2013 01:00 -0,2 C 91 % 1031,9 hPa 0,0 l/m 1,8 km/h (1 Bft) NW -1,5 C -0,2 C 4,1 km/h (1 Bft)
26.11.2013 02:00 -0,8 C 92 % 1032,1 hPa 0,0 l/m 1,8 km/h (1 Bft) NW -2,0 C -0,8 C 3,5 km/h (1 Bft)
26.11.2013 03:00 -1,3 C 92 % 1032,1 hPa 0,0 l/m 0,9 km/h (0 Bft) W-NW -2,4 C -1,3 C 2,1 km/h (1 Bft)
26.11.2013 04:00 -1,9 C 93 % 1032,3 hPa 0,0 l/m 0,5 km/h (0 Bft) NW -2,9 C -1,9 C 1,7 km/h (1 Bft)
26.11.2013 05:00 -2,9 C 94 % 1032,5 hPa 0,0 l/m 0,0 km/h (0 Bft) N -3,7 C -2,9 C 0,0 km/h (0 Bft)
26.11.2013 06:00 -3,6 C 94 % 1032,8 hPa 0,0 l/m 0,0 km/h (0 Bft) N -4,4 C -3,6 C 0,0 km/h (0 Bft)
26.11.2013 07:00 -4,5 C 94 % 1033,1 hPa 0,0 l/m 0,0 km/h (0 Bft) N -5,3 C -4,5 C 0,0 km/h (0 Bft)
26.11.2013 08:00 -5,1 C 94 % 1033,7 hPa 0,0 l/m 0,0 km/h (0 Bft) N -5,8 C -5,1 C 0,0 km/h (0 Bft)
26.11.2013 09:00 -3,8 C 95 % 1033,9 hPa 0,0 l/m 0,0 km/h (0 Bft) N -4,5 C -3,8 C 0,1 km/h (0 Bft)
26.11.2013 10:00 -1,1 C 95 % 1034,5 hPa 0,0 l/m 0,0 km/h (0 Bft) N -1,8 C -1,1 C 0,0 km/h (0 Bft)
26.11.2013 11:00 0,2 C 93 % 1034,4 hPa 0,0 l/m 1,5 km/h (1 Bft) S -0,8 C 0,2 C 3,5 km/h (1 Bft)
26.11.2013 12:00 1,8 C 91 % 1034,4 hPa 0,2 l/m 0,6 km/h (0 Bft) SW 0,4 C 1,8 C 2,7 km/h (1 Bft)
26.11.2013 13:00 3,1 C 87 % 1033,9 hPa 0,0 l/m 1,6 km/h (1 Bft) S-SW 1,2 C 3,1 C 3,7 km/h (1 Bft)
26.11.2013 14:00 3,9 C 84 % 1033,9 hPa 0,0 l/m 1,2 km/h (1 Bft) S-SW 1,5 C 3,9 C 3,7 km/h (1 Bft)
26.11.2013 15:00 2,9 C 86 % 1033,7 hPa 0,0 l/m 0,3 km/h (0 Bft) W-SW 0,7 C 2,9 C 1,3 km/h (1 Bft)
26.11.2013 16:00 0,6 C 91 % 1033,6 hPa 0,0 l/m 0,0 km/h (0 Bft) N -0,7 C 0,6 C 0,0 km/h (0 Bft)
26.11.2013 17:00 -1,3 C 92 % 1033,9 hPa 0,0 l/m 0,0 km/h (0 Bft) N -2,4 C -1,3 C 0,0 km/h (0 Bft)
26.11.2013 18:00 -2,8 C 94 % 1034,1 hPa 0,0 l/m 0,0 km/h (0 Bft) N -3,7 C -2,8 C 0,0 km/h (0 Bft)
26.11.2013 19:00 -3,1 C 94 % 1034,1 hPa 0,0 l/m 0,0 km/h (0 Bft) N -3,9 C -3,1 C 0,0 km/h (0 Bft)
26.11.2013 20:00 -4,3 C 94 % 1034,1 hPa 0,0 l/m 0,0 km/h (0 Bft) N -5,1 C -4,3 C 0,0 km/h (0 Bft)
26.11.2013 21:00 -4,4 C 95 % 1034,1 hPa 0,0 l/m 0,0 km/h (0 Bft) N -5,1 C -4,4 C 0,0 km/h (0 Bft)
26.11.2013 22:00 -5,3 C 94 % 1034,0 hPa 0,0 l/m 0,0 km/h (0 Bft) N -6,1 C -5,3 C 0,0 km/h (0 Bft)
26.11.2013 23:00 -5,5 C 94 % 1034,1 hPa 0,0 l/m 0,0 km/h (0 Bft) N -6,3 C -5,5 C 0,0 km/h (0 Bft)
27.11.2013 00:00 -5,2 C 94 % 1033,8 hPa 0,0 l/m 0,0 km/h (0 Bft) N -6,1 C -5,2 C 0,0 km/h (0 Bft)
27.11.2013 01:00 -5,5 C 94 % 1033,1 hPa 0,0 l/m 0,0 km/h (0 Bft) N -6,2 C -5,5 C 0,0 km/h (0 Bft)
27.11.2013 02:00 -5,3 C 94 % 1033,0 hPa 0,0 l/m 0,0 km/h (0 Bft) N -6,1 C -5,3 C 0,0 km/h (0 Bft)
27.11.2013 03:00 -5,2 C 94 % 1032,6 hPa 0,0 l/m 0,0 km/h (0 Bft) N -6,0 C -5,2 C 0,0 km/h (0 Bft)
27.11.2013 04:00 -4,4 C 95 % 1032,4 hPa 0,0 l/m 0,0 km/h (0 Bft) N -5,1 C -4,4 C 0,0 km/h (0 Bft)
27.11.2013 05:00 -3,1 C 95 % 1032,3 hPa 0,0 l/m 0,8 km/h (0 Bft) S-SW -3,8 C -3,1 C 2,3 km/h (1 Bft)
27.11.2013 06:00 -2,0 C 95 % 1032,0 hPa 0,0 l/m 2,0 km/h (1 Bft) SW -2,7 C -2,0 C 4,8 km/h (1 Bft)
27.11.2013 07:00 -1,5 C 95 % 1032,0 hPa 0,0 l/m 0,9 km/h (0 Bft) SW -2,2 C -1,5 C 3,5 km/h (1 Bft)
27.11.2013 08:00 -0,9 C 95 % 1031,8 hPa 0,0 l/m 2,1 km/h (1 Bft) SW -1,6 C -0,9 C 5,5 km/h (2 Bft)
27.11.2013 09:00 -0,4 C 95 % 1032,0 hPa 0,0 l/m 1,8 km/h (1 Bft) S-SW -1,0 C -0,4 C 4,7 km/h (1 Bft)
27.11.2013 10:00 0,1 C 96 % 1032,1 hPa 0,0 l/m 2,8 km/h (1 Bft) SW -0,5 C 0,1 C 7,4 km/h (2 Bft)
27.11.2013 11:00 0,8 C 96 % 1031,6 hPa 0,2 l/m 3,3 km/h (1 Bft) SW 0,3 C 0,8 C 8,6 km/h (2 Bft)
27.11.2013 12:00 1,7 C 96 % 1031,3 hPa 0,0 l/m 3,7 km/h (1 Bft) S-SW 1,1 C 1,7 C 9,0 km/h (2 Bft)
27.11.2013 13:00 2,3 C 96 % 1030,8 hPa 0,0 l/m 4,1 km/h (1 Bft) SW 1,7 C 2,3 C 9,5 km/h (2 Bft)
27.11.2013 14:00 2,6 C 96 % 1030,3 hPa 0,0 l/m 3,9 km/h (1 Bft) SW 2,0 C 2,6 C 9,5 km/h (2 Bft)
27.11.2013 15:00 2,9 C 94 % 1029,9 hPa 0,0 l/m 4,3 km/h (1 Bft) SW 2,1 C 2,9 C 11,0 km/h (2 Bft)
27.11.2013 16:00 2,6 C 93 % 1029,6 hPa 0,0 l/m 4,2 km/h (1 Bft) SW 1,6 C 2,6 C 10,8 km/h (2 Bft)
27.11.2013 17:00 2,6 C 94 % 1029,4 hPa 0,0 l/m 4,6 km/h (1 Bft) SW 1,7 C 2,6 C 12,0 km/h (2 Bft)
27.11.2013 18:00 2,8 C 95 % 1029,4 hPa 0,2 l/m 4,4 km/h (1 Bft) W-SW 2,0 C 2,8 C 10,2 km/h (2 Bft)
27.11.2013 19:00 3,0 C 95 % 1029,3 hPa 0,0 l/m 3,8 km/h (1 Bft) S-SW 2,3 C 3,0 C 9,5 km/h (2 Bft)
27.11.2013 20:00 3,7 C 96 % 1028,9 hPa 0,2 l/m 4,4 km/h (1 Bft) SW 3,1 C 3,7 C 10,6 km/h (2 Bft)
27.11.2013 21:00 4,4 C 96 % 1028,6 hPa 0,0 l/m 6,0 km/h (2 Bft) W-NW 3,9 C 4,2 C 14,2 km/h (3 Bft)
27.11.2013 22:00 4,6 C 96 % 1028,6 hPa 0,0 l/m 5,4 km/h (1 Bft) S-SW 4,0 C 4,6 C 13,2 km/h (3 Bft)
27.11.2013 23:00 4,8 C 96 % 1028,5 hPa 0,2 l/m 5,3 km/h (1 Bft) W-NW 4,2 C 4,7 C 13,4 km/h (3 Bft)
28.11.2013 00:00 4,9 C 96 % 1028,3 hPa 0,2 l/m 4,2 km/h (1 Bft) SW 4,3 C 4,9 C 10,9 km/h (2 Bft)
28.11.2013 01:00 5,1 C 96 % 1027,8 hPa 0,0 l/m 3,7 km/h (1 Bft) W 4,6 C 5,1 C 10,5 km/h (2 Bft)
28.11.2013 02:00 5,5 C 96 % 1027,8 hPa 0,2 l/m 3,9 km/h (1 Bft) W 5,0 C 5,5 C 10,3 km/h (2 Bft)
28.11.2013 03:00 5,8 C 96 % 1027,7 hPa 0,0 l/m 3,0 km/h (1 Bft) S-SW 5,2 C 5,8 C 8,3 km/h (2 Bft)
28.11.2013 04:00 6,1 C 96 % 1027,4 hPa 0,2 l/m 3,0 km/h (1 Bft) W 5,5 C 6,1 C 7,9 km/h (2 Bft)
28.11.2013 05:00 6,6 C 96 % 1027,3 hPa 0,0 l/m 2,7 km/h (1 Bft) W-NW 6,0 C 6,6 C 8,2 km/h (2 Bft)
28.11.2013 06:00 6,9 C 96 % 1027,3 hPa 0,0 l/m 3,1 km/h (1 Bft) W 6,3 C 6,9 C 7,5 km/h (2 Bft)
28.11.2013 07:00 7,1 C 96 % 1027,4 hPa 0,0 l/m 3,0 km/h (1 Bft) W 6,5 C 7,1 C 7,5 km/h (2 Bft)
28.11.2013 08:00 7,2 C 96 % 1027,5 hPa 0,0 l/m 2,7 km/h (1 Bft) W 6,6 C 7,2 C 8,0 km/h (2 Bft)
28.11.2013 09:00 7,4 C 96 % 1027,8 hPa 0,0 l/m 5,1 km/h (1 Bft) W-NW 6,7 C 7,2 C 11,0 km/h (2 Bft)
28.11.2013 10:00 7,4 C 92 % 1028,3 hPa 0,0 l/m 6,6 km/h (2 Bft) NW 6,2 C 6,6 C 14,1 km/h (3 Bft)
28.11.2013 11:00 7,6 C 88 % 1028,3 hPa 0,0 l/m 6,9 km/h (2 Bft) W-NW 5,7 C 7,0 C 14,2 km/h (3 Bft)
28.11.2013 12:00 7,8 C 87 % 1027,9 hPa 0,0 l/m 6,5 km/h (2 Bft) W 5,7 C 7,4 C 15,2 km/h (3 Bft)
28.11.2013 13:00 7,7 C 86 % 1027,5 hPa 0,0 l/m 5,1 km/h (1 Bft) W-NW 5,4 C 7,6 C 13,5 km/h (3 Bft)
28.11.2013 14:00 7,5 C 85 % 1026,9 hPa 0,0 l/m 5,9 km/h (2 Bft) W-NW 5,2 C 7,3 C 12,8 km/h (3 Bft)
28.11.2013 15:00 7,3 C 87 % 1026,7 hPa 0,0 l/m 4,8 km/h (1 Bft) W-NW 5,2 C 7,3 C 11,4 km/h (2 Bft)
28.11.2013 16:00 7,1 C 84 % 1026,6 hPa 0,0 l/m 5,1 km/h (1 Bft) W 4,7 C 7,0 C 11,0 km/h (2 Bft)
28.11.2013 17:00 7,1 C 82 % 1026,8 hPa 0,0 l/m 5,8 km/h (2 Bft) NW 4,3 C 6,8 C 14,1 km/h (3 Bft)
28.11.2013 18:00 6,5 C 84 % 1026,9 hPa 0,0 l/m 3,6 km/h (1 Bft) W 3,9 C 6,4 C 9,7 km/h (2 Bft)
28.11.2013 19:00 6,3 C 85 % 1027,1 hPa 0,0 l/m 3,4 km/h (1 Bft) W 4,0 C 6,3 C 8,8 km/h (2 Bft)
28.11.2013 20:00 6,0 C 85 % 1027,1 hPa 0,0 l/m 3,7 km/h (1 Bft) W 3,7 C 6,0 C 9,1 km/h (2 Bft)
28.11.2013 21:00 5,8 C 87 % 1027,3 hPa 0,0 l/m 2,0 km/h (1 Bft) W 3,8 C 5,8 C 5,7 km/h (2 Bft)
28.11.2013 22:00 6,1 C 86 % 1027,1 hPa 0,0 l/m 2,9 km/h (1 Bft) W-NW 4,0 C 6,1 C 7,3 km/h (2 Bft)
28.11.2013 23:00 6,2 C 86 % 1026,9 hPa 0,0 l/m 2,7 km/h (1 Bft) S-SW 3,9 C 6,1 C 6,3 km/h (2 Bft)
29.11.2013 00:00 6,2 C 86 % 1026,9 hPa 0,0 l/m 4,2 km/h (1 Bft) W 4,0 C 6,2 C 10,5 km/h (2 Bft)
29.11.2013 01:00 6,2 C 86 % 1026,6 hPa 0,0 l/m 3,1 km/h (1 Bft) W 4,1 C 6,2 C 8,0 km/h (2 Bft)
29.11.2013 02:00 6,0 C 87 % 1026,1 hPa 0,0 l/m 3,7 km/h (1 Bft) W 4,1 C 6,0 C 10,1 km/h (2 Bft)
29.11.2013 03:00 5,9 C 88 % 1025,8 hPa 0,0 l/m 3,2 km/h (1 Bft) SW 4,1 C 5,9 C 8,7 km/h (2 Bft)
29.11.2013 04:00 5,8 C 88 % 1025,3 hPa 0,0 l/m 2,4 km/h (1 Bft) W-SW 4,0 C 5,8 C 6,1 km/h (2 Bft)
29.11.2013 05:00 5,8 C 88 % 1024,9 hPa 0,0 l/m 2,3 km/h (1 Bft) W-NW 4,0 C 5,8 C 7,1 km/h (2 Bft)
29.11.2013 06:00 5,6 C 89 % 1024,4 hPa 0,0 l/m 0,5 km/h (0 Bft) S-SW 3,9 C 5,6 C 1,7 km/h (1 Bft)
29.11.2013 07:00 5,6 C 89 % 1023,6 hPa 0,0 l/m 1,9 km/h (1 Bft) W-NW 3,9 C 5,6 C 6,1 km/h (2 Bft)
29.11.2013 08:00 5,6 C 90 % 1022,9 hPa 0,0 l/m 3,1 km/h (1 Bft) W 4,0 C 5,6 C 8,0 km/h (2 Bft)
29.11.2013 09:00 5,7 C 90 % 1021,9 hPa 0,0 l/m 3,5 km/h (1 Bft) S-SW 4,2 C 5,7 C 9,5 km/h (2 Bft)
29.11.2013 10:00 6,1 C 89 % 1020,9 hPa 0,0 l/m 5,7 km/h (2 Bft) W-NW 4,4 C 6,0 C 16,2 km/h (3 Bft)
29.11.2013 11:00 6,0 C 91 % 1019,1 hPa 0,0 l/m 7,1 km/h (2 Bft) S-SW 4,6 C 5,3 C 17,3 km/h (3 Bft)
29.11.2013 12:00 5,9 C 90 % 1017,2 hPa 0,0 l/m 7,2 km/h (2 Bft) S-SW 4,4 C 5,1 C 18,1 km/h (3 Bft)
29.11.2013 13:00 5,5 C 91 % 1015,0 hPa 0,6 l/m 7,8 km/h (2 Bft) S-SW 4,2 C 4,2 C 16,4 km/h (3 Bft)
29.11.2013 14:00 5,1 C 92 % 1012,8 hPa 2,0 l/m 8,2 km/h (2 Bft) S-SW 3,9 C 3,6 C 18,9 km/h (3 Bft)
29.11.2013 15:00 4,9 C 92 % 1010,5 hPa 0,6 l/m 9,1 km/h (2 Bft) SW 3,6 C 2,6 C 21,4 km/h (4 Bft)
29.11.2013 16:00 5,0 C 92 % 1008,7 hPa 0,4 l/m 9,1 km/h (2 Bft) SW 3,9 C 2,8 C 20,5 km/h (4 Bft)
29.11.2013 17:00 5,5 C 92 % 1007,2 hPa 1,2 l/m 8,5 km/h (2 Bft) S-SW 4,4 C 3,7 C 19,7 km/h (3 Bft)
29.11.2013 18:00 6,0 C 92 % 1006,6 hPa 0,0 l/m 7,7 km/h (2 Bft) S-SW 4,7 C 4,8 C 18,5 km/h (3 Bft)
29.11.2013 19:00 5,5 C 91 % 1006,5 hPa 0,6 l/m 7,4 km/h (2 Bft) W-NW 4,2 C 4,5 C 17,0 km/h (3 Bft)
29.11.2013 20:00 4,6 C 92 % 1006,8 hPa 0,4 l/m 5,9 km/h (2 Bft) W 3,4 C 4,2 C 14,4 km/h (3 Bft)
29.11.2013 21:00 4,1 C 92 % 1007,0 hPa 1,0 l/m 5,3 km/h (1 Bft) W-NW 3,0 C 4,0 C 13,0 km/h (3 Bft)
29.11.2013 22:00 3,8 C 92 % 1007,2 hPa 0,2 l/m 5,4 km/h (1 Bft) W 2,6 C 3,8 C 14,1 km/h (3 Bft)
29.11.2013 23:00 3,6 C 92 % 1007,2 hPa 0,0 l/m 5,6 km/h (2 Bft) W 2,5 C 3,5 C 14,5 km/h (3 Bft)
30.11.2013 00:00 3,7 C 92 % 1007,1 hPa 0,0 l/m 6,7 km/h (2 Bft) SW 2,5 C 3,2 C 15,6 km/h (3 Bft)
30.11.2013 01:00 3,8 C 91 % 1007,0 hPa 0,0 l/m 7,2 km/h (2 Bft) W 2,4 C 3,0 C 17,8 km/h (3 Bft)
30.11.2013 02:00 3,8 C 91 % 1007,0 hPa 0,0 l/m 6,9 km/h (2 Bft) W-SW 2,5 C 3,3 C 17,0 km/h (3 Bft)
30.11.2013 03:00 3,8 C 91 % 1007,2 hPa 0,2 l/m 6,3 km/h (2 Bft) W-NW 2,5 C 3,5 C 15,2 km/h (3 Bft)
30.11.2013 04:00 3,7 C 92 % 1007,3 hPa 1,2 l/m 5,8 km/h (2 Bft) S-SW 2,6 C 3,7 C 14,6 km/h (3 Bft)
30.11.2013 05:00 3,9 C 93 % 1008,0 hPa 0,6 l/m 5,8 km/h (2 Bft) W-SW 3,0 C 3,8 C 13,3 km/h (3 Bft)
30.11.2013 06:00 4,2 C 94 % 1008,9 hPa 0,4 l/m 6,5 km/h (2 Bft) W-NW 3,4 C 3,8 C 14,2 km/h (3 Bft)
30.11.2013 07:00 4,4 C 94 % 1010,0 hPa 0,2 l/m 5,1 km/h (1 Bft) W 3,5 C 4,4 C 12,8 km/h (3 Bft)
30.11.2013 08:00 4,6 C 94 % 1011,6 hPa 0,6 l/m 4,0 km/h (1 Bft) W-NW 3,7 C 4,6 C 8,6 km/h (2 Bft)
30.11.2013 09:00 4,9 C 95 % 1013,1 hPa 0,2 l/m 4,3 km/h (1 Bft) NW 4,1 C 4,9 C 9,1 km/h (2 Bft)
30.11.2013 10:00 5,2 C 93 % 1014,7 hPa 0,0 l/m 7,1 km/h (2 Bft) NW 4,2 C 4,6 C 12,5 km/h (2 Bft)
30.11.2013 11:00 5,3 C 92 % 1015,7 hPa 0,0 l/m 7,9 km/h (2 Bft) NW 4,1 C 4,0 C 14,2 km/h (3 Bft)
30.11.2013 12:00 5,1 C 92 % 1016,7 hPa 0,0 l/m 6,4 km/h (2 Bft) NW 3,9 C 4,8 C 11,7 km/h (2 Bft)
30.11.2013 13:00 5,1 C 91 % 1017,7 hPa 0,0 l/m 6,4 km/h (2 Bft) NW 3,8 C 4,8 C 12,1 km/h (2 Bft)
30.11.2013 14:00 5,0 C 91 % 1018,9 hPa 0,0 l/m 5,1 km/h (1 Bft) NW 3,7 C 4,9 C 10,2 km/h (2 Bft)
30.11.2013 15:00 4,8 C 92 % 1020,0 hPa 0,0 l/m 3,2 km/h (1 Bft) W-NW 3,5 C 4,8 C 7,0 km/h (2 Bft)
30.11.2013 16:00 4,6 C 91 % 1021,0 hPa 0,0 l/m 1,9 km/h (1 Bft) W-NW 3,3 C 4,6 C 5,2 km/h (1 Bft)
30.11.2013 17:00 4,4 C 91 % 1021,7 hPa 0,0 l/m 1,9 km/h (1 Bft) W 3,0 C 4,4 C 5,7 km/h (2 Bft)
30.11.2013 18:00 4,3 C 92 % 1022,4 hPa 0,0 l/m 1,3 km/h (1 Bft) W 3,1 C 4,3 C 4,1 km/h (1 Bft)
30.11.2013 19:00 4,2 C 92 % 1022,9 hPa 0,0 l/m 0,9 km/h (0 Bft) SW 3,0 C 4,2 C 3,5 km/h (1 Bft)
30.11.2013 20:00 4,1 C 92 % 1023,3 hPa 0,0 l/m 1,4 km/h (1 Bft) SW 2,9 C 4,1 C 4,7 km/h (1 Bft)
30.11.2013 21:00 4,3 C 92 % 1023,8 hPa 0,0 l/m 2,2 km/h (1 Bft) S 3,1 C 4,3 C 6,7 km/h (2 Bft)
30.11.2013 22:00 4,5 C 92 % 1024,1 hPa 0,0 l/m 2,2 km/h (1 Bft) W 3,4 C 4,5 C 6,8 km/h (2 Bft)
30.11.2013 23:00 4,8 C 94 % 1024,4 hPa 0,2 l/m 2,5 km/h (1 Bft) W 3,8 C 4,8 C 7,0 km/h (2 Bft)
01.12.2013 00:00 4,9 C 94 % 1024,6 hPa 0,0 l/m 1,9 km/h (1 Bft) W 4,0 C 4,9 C 5,7 km/h (2 Bft)
01.12.2013 01:00 5,0 C 95 % 1024,8 hPa 0,0 l/m 2,5 km/h (1 Bft) W 4,2 C 5,0 C 7,9 km/h (2 Bft)
01.12.2013 02:00 4,9 C 94 % 1024,9 hPa 0,0 l/m 2,2 km/h (1 Bft) W 4,0 C 4,9 C 6,7 km/h (2 Bft)
01.12.2013 03:00 4,9 C 94 % 1024,7 hPa 0,0 l/m 2,8 km/h (1 Bft) W 4,0 C 4,9 C 7,6 km/h (2 Bft)
01.12.2013 04:00 4,8 C 94 % 1024,6 hPa 0,0 l/m 2,9 km/h (1 Bft) SW 3,9 C 4,8 C 7,5 km/h (2 Bft)
01.12.2013 05:00 4,6 C 94 % 1024,6 hPa 0,0 l/m 2,5 km/h (1 Bft) W-SW 3,6 C 4,6 C 7,0 km/h (2 Bft)
01.12.2013 06:00 3,9 C 94 % 1024,6 hPa 0,0 l/m 2,0 km/h (1 Bft) SW 2,9 C 3,9 C 5,9 km/h (2 Bft)
01.12.2013 07:00 3,8 C 94 % 1025,0 hPa 0,0 l/m 3,6 km/h (1 Bft) S-SW 2,9 C 3,8 C 10,1 km/h (2 Bft)
01.12.2013 08:00 4,3 C 93 % 1025,1 hPa 0,0 l/m 3,8 km/h (1 Bft) W-NW 3,3 C 4,3 C 11,0 km/h (2 Bft)
01.12.2013 09:00 4,9 C 93 % 1025,4 hPa 0,0 l/m 4,4 km/h (1 Bft) W 3,9 C 4,9 C 11,6 km/h (2 Bft)
01.12.2013 10:00 5,7 C 93 % 1025,7 hPa 0,0 l/m 5,5 km/h (2 Bft) W-NW 4,6 C 5,6 C 13,7 km/h (3 Bft)
01.12.2013 11:00 6,4 C 92 % 1025,3 hPa 0,0 l/m 5,5 km/h (2 Bft) W-SW 5,1 C 6,2 C 14,0 km/h (3 Bft)
01.12.2013 12:00 6,9 C 90 % 1025,0 hPa 0,0 l/m 6,3 km/h (2 Bft) W-NW 5,4 C 6,7 C 16,0 km/h (3 Bft)
01.12.2013 13:00 6,8 C 91 % 1025,0 hPa 0,0 l/m 5,2 km/h (1 Bft) W 5,4 C 6,7 C 12,8 km/h (3 Bft)
01.12.2013 14:00 7,0 C 91 % 1024,8 hPa 0,2 l/m 4,7 km/h (1 Bft) W 5,7 C 7,0 C 12,8 km/h (3 Bft)
01.12.2013 15:00 6,8 C 93 % 1025,0 hPa 0,2 l/m 4,3 km/h (1 Bft) W-SW 5,7 C 6,8 C 11,7 km/h (2 Bft)
01.12.2013 16:00 6,9 C 94 % 1025,5 hPa 0,2 l/m 3,7 km/h (1 Bft) W 6,0 C 6,9 C 9,7 km/h (2 Bft)
01.12.2013 17:00 7,1 C 93 % 1025,8 hPa 0,0 l/m 4,6 km/h (1 Bft) W 6,1 C 7,1 C 11,2 km/h (2 Bft)
01.12.2013 18:00 6,5 C 93 % 1026,4 hPa 0,0 l/m 1,8 km/h (1 Bft) W 5,4 C 6,5 C 6,1 km/h (2 Bft)
01.12.2013 19:00 5,6 C 93 % 1027,4 hPa 0,0 l/m 1,3 km/h (1 Bft) W-SW 4,5 C 5,6 C 5,1 km/h (1 Bft)
01.12.2013 20:00 4,9 C 94 % 1028,2 hPa 0,0 l/m 1,1 km/h (1 Bft) W 3,9 C 4,9 C 4,4 km/h (1 Bft)
01.12.2013 21:00 4,6 C 94 % 1028,9 hPa 0,0 l/m 1,9 km/h (1 Bft) W 3,7 C 4,6 C 5,9 km/h (2 Bft)
01.12.2013 22:00 4,6 C 94 % 1029,7 hPa 0,0 l/m 1,3 km/h (1 Bft) W 3,7 C 4,6 C 3,7 km/h (1 Bft)
01.12.2013 23:00 4,3 C 93 % 1030,2 hPa 0,0 l/m 1,0 km/h (0 Bft) W-NW 3,2 C 4,3 C 2,4 km/h (1 Bft)
Min-Datum _ 26.11.13 25.11.13 29.11.13 - 25.11.13 - 26.11.13 26.11.13 25.11.13
_ Min-Zeit 23:15 13:55 18:45 - 00:30 - 23:15 23:15 00:30
Minimum _ -5,9 C 76 % 1006,4 hPa - 0,0 km/h (0 Bft) - -6,7 C -5,9 C 0,0 km/h (0 Bft)
Max-Datum _ 28.11.13 27.11.13 26.11.13 29.11.13 29.11.13 - 28.11.13 28.11.13 29.11.13
_ Max-Zeit 11:45 09:35 10:20 14:10 19:40 - 09:15 11:55 16:15
Maximum _ 7,8 C 96 % 1034,6 hPa 2,0 l/m 12,3 km/h
W-NW (2 Bft)
- 6,8 C 7,8 C 30,6 km/h
SW (5 Bft)
Durchschnitt _ 2,7 C 92 % 1025,5 hPa #12,8 l/m 3,1 km/h (1 Bft) W 1,5 C 2,6 C 7,7 km/h (2 Bft)